createdAt,value
2024-03-04T00:00:58.433Z,62.32
2024-03-04T00:04:24.861Z,62.26
2024-03-04T00:07:29.269Z,62.49
2024-03-04T00:10:34.083Z,62.45
2024-03-04T00:13:38.884Z,62.45
2024-03-04T00:16:44.258Z,62.29
2024-03-04T00:19:48.490Z,62.50
2024-03-04T00:22:52.791Z,62.29
2024-03-04T00:25:57.002Z,62.21
2024-03-04T00:29:01.224Z,62.15
2024-03-04T00:32:06.378Z,62.06
2024-03-04T00:35:12.276Z,62.34
2024-03-04T00:38:16.647Z,62.29
2024-03-04T00:41:27.318Z,62.80
2024-03-04T00:44:31.746Z,62.61
2024-03-04T00:47:36.203Z,62.38
2024-03-04T00:50:40.660Z,62.72
2024-03-04T00:53:48.511Z,62.76
2024-03-04T00:56:52.769Z,62.52
2024-03-04T00:59:58.275Z,62.91
2024-03-04T01:03:02.917Z,62.91
2024-03-04T01:06:07.231Z,62.87
2024-03-04T01:09:12.668Z,63.03
2024-03-04T01:12:17.100Z,62.94
2024-03-04T01:15:21.333Z,63.26
2024-03-04T01:18:26.429Z,63.23
2024-03-04T01:21:31.009Z,62.94
2024-03-04T01:24:35.627Z,63.10
2024-03-04T01:27:39.747Z,63.26
2024-03-04T01:30:43.970Z,63.24
2024-03-04T01:33:51.093Z,63.31
2024-03-04T01:36:55.478Z,63.33
2024-03-04T01:39:59.710Z,63.12
2024-03-04T01:43:04.526Z,63.48
2024-03-04T01:46:10.926Z,63.37
2024-03-04T01:49:15.346Z,63.57
2024-03-04T01:52:22.110Z,63.30
2024-03-04T01:55:31.928Z,63.83
2024-03-04T01:58:42.836Z,63.80
2024-03-04T02:01:47.531Z,63.94
2024-03-04T02:04:53.330Z,64.01
2024-03-04T02:07:58.680Z,64.11
2024-03-04T02:11:05.345Z,64.14
2024-03-04T02:14:10.674Z,64.16
2024-03-04T02:17:16.165Z,64.37
2024-03-04T02:20:22.935Z,64.08
2024-03-04T02:23:27.567Z,64.21
2024-03-04T02:26:35.128Z,64.33
2024-03-04T02:29:39.390Z,64.37
2024-03-04T02:32:43.955Z,64.63
2024-03-04T02:35:49.770Z,64.57
2024-03-04T02:38:55.100Z,64.60
2024-03-04T02:41:59.342Z,64.45
2024-03-04T02:45:04.782Z,64.66
2024-03-04T02:48:09.223Z,64.73
2024-03-04T02:51:13.498Z,65.09
2024-03-04T02:54:18.376Z,65.08
2024-03-04T02:57:22.599Z,65.15
2024-03-04T03:00:27.017Z,65.19
2024-03-04T03:03:31.351Z,65.55
2024-03-04T03:06:35.668Z,65.46
2024-03-04T03:09:39.888Z,65.61
2024-03-04T03:12:44.215Z,65.68
2024-03-04T03:15:49.557Z,65.47
2024-03-04T03:18:57.725Z,65.73
2024-03-04T03:22:04.244Z,65.79
2024-03-04T03:25:09.346Z,65.81
2024-03-04T03:28:14.875Z,65.92
2024-03-04T03:31:22.545Z,65.82
2024-03-04T03:34:26.809Z,65.92
2024-03-04T03:37:31.542Z,65.77
2024-03-04T03:40:36.137Z,65.90
2024-03-04T03:43:40.423Z,65.58
2024-03-04T03:46:44.819Z,65.93
2024-03-04T03:49:49.718Z,65.75
2024-03-04T03:52:53.864Z,65.94
2024-03-04T03:55:58.152Z,65.87
2024-03-04T03:59:02.480Z,65.98
2024-03-04T04:02:06.862Z,65.93
2024-03-04T04:05:11.242Z,66.28
2024-03-04T04:08:15.646Z,66.42
2024-03-04T04:11:19.928Z,66.11
2024-03-04T04:14:24.295Z,66.07
2024-03-04T04:17:28.549Z,66.39
2024-03-04T04:20:32.776Z,66.11
2024-03-04T04:23:37.260Z,65.97
2024-03-04T04:26:41.484Z,65.87
2024-03-04T04:29:46.019Z,65.84
2024-03-04T04:32:50.365Z,65.93
2024-03-04T04:35:54.771Z,65.83
2024-03-04T04:38:59.191Z,66.06
2024-03-04T04:42:03.517Z,66.23
2024-03-04T04:45:08.310Z,66.15
2024-03-04T04:48:12.565Z,66.23
2024-03-04T04:51:16.788Z,66.36
2024-03-04T04:54:21.015Z,66.53
2024-03-04T04:57:27.248Z,66.48
2024-03-04T05:00:31.620Z,66.61
2024-03-04T05:03:52.351Z,66.56
2024-03-04T05:07:01.915Z,66.55
2024-03-04T05:10:07.479Z,66.83
2024-03-04T05:13:12.248Z,66.75
2024-03-04T05:16:16.622Z,66.93
2024-03-04T05:19:22.770Z,66.69
2024-03-04T05:22:27.718Z,67.30
2024-03-04T05:25:32.398Z,67.16
2024-03-04T05:28:36.638Z,67.08
2024-03-04T05:31:53.074Z,67.25
2024-03-04T05:34:57.389Z,67.08
2024-03-04T05:38:01.678Z,67.10
2024-03-04T05:41:06.312Z,66.96
2024-03-04T05:44:11.033Z,67.04
2024-03-04T05:47:16.176Z,66.96
2024-03-04T05:50:20.397Z,66.86
2024-03-04T05:53:26.918Z,67.10
2024-03-04T05:56:31.300Z,67.14
2024-03-04T05:59:35.522Z,67.02
2024-03-04T06:02:40.525Z,66.97
2024-03-04T06:05:44.823Z,66.91
2024-03-04T06:08:49.109Z,66.82
2024-03-04T06:11:53.456Z,66.97
2024-03-04T06:14:57.755Z,66.78
2024-03-04T06:18:02.123Z,66.70
2024-03-04T06:21:07.542Z,66.96
2024-03-04T06:24:11.949Z,66.97
2024-03-04T06:27:16.477Z,66.94
2024-03-04T06:30:20.812Z,66.93
2024-03-04T06:33:32.709Z,66.97
2024-03-04T06:36:44.605Z,66.94
2024-03-04T06:39:49.077Z,66.60
2024-03-04T06:42:53.489Z,66.54
2024-03-04T06:45:57.858Z,66.42
2024-03-04T06:49:02.360Z,66.39
2024-03-04T06:52:07.277Z,66.72
2024-03-04T06:55:11.707Z,66.63
2024-03-04T06:58:16.680Z,66.70
2024-03-04T07:01:21.230Z,66.19
2024-03-04T07:04:25.640Z,66.37
2024-03-04T07:07:30.234Z,66.12
2024-03-04T07:10:34.535Z,66.49
2024-03-04T07:13:38.865Z,66.51
2024-03-04T07:16:43.403Z,66.35
2024-03-04T07:19:47.800Z,66.26
2024-03-04T07:22:52.119Z,65.88
2024-03-04T07:25:56.331Z,65.87
2024-03-04T07:29:02.188Z,65.72
2024-03-04T07:32:08.103Z,65.83
2024-03-04T07:35:12.786Z,65.93
2024-03-04T07:38:16.901Z,65.96
2024-03-04T07:41:21.122Z,66.13
2024-03-04T07:44:25.457Z,66.04
2024-03-04T07:47:29.903Z,66.01
2024-03-04T07:50:34.208Z,66.06
2024-03-04T07:53:38.415Z,66.11
2024-03-04T07:56:42.736Z,65.95
2024-03-04T07:59:47.073Z,65.81
2024-03-04T08:02:51.282Z,65.62
2024-03-04T08:05:55.604Z,65.60
2024-03-04T08:08:59.829Z,65.66
2024-03-04T08:12:06.141Z,65.51
2024-03-04T08:15:10.817Z,65.54
2024-03-04T08:18:15.003Z,65.48
2024-03-04T08:21:19.416Z,65.27
2024-03-04T08:24:23.698Z,65.67
2024-03-04T08:27:28.019Z,65.37
2024-03-04T08:30:32.168Z,65.19
2024-03-04T08:33:36.667Z,65.17
2024-03-04T08:36:41.402Z,65.38
2024-03-04T08:39:45.836Z,65.22
2024-03-04T08:42:50.155Z,65.02
2024-03-04T08:45:54.488Z,64.95
2024-03-04T08:48:58.694Z,64.92
2024-03-04T08:52:03.513Z,64.94
2024-03-04T08:55:08.460Z,65.07
2024-03-04T08:58:14.076Z,64.57
2024-03-04T09:01:19.490Z,64.53
2024-03-04T09:04:23.910Z,64.16
2024-03-04T09:07:29.181Z,64.23
2024-03-04T09:10:35.536Z,64.21
2024-03-04T09:13:41.266Z,64.23
2024-03-04T09:16:45.612Z,64.03
2024-03-04T09:19:50.165Z,64.05
2024-03-04T09:22:55.702Z,63.89
2024-03-04T09:26:00.540Z,63.84
2024-03-04T09:29:04.931Z,63.76
2024-03-04T09:32:09.252Z,63.32
2024-03-04T09:35:13.699Z,63.60
2024-03-04T09:38:17.911Z,62.98
2024-03-04T09:41:23.045Z,62.79
2024-03-04T09:44:29.230Z,63.34
2024-03-04T09:47:35.214Z,63.14
2024-03-04T09:50:39.632Z,63.47
2024-03-04T09:53:45.970Z,63.34
2024-03-04T09:56:51.520Z,63.50
2024-03-04T09:59:56.509Z,63.19
2024-03-04T10:03:01.091Z,62.97
2024-03-04T10:06:06.695Z,63.46
2024-03-04T10:09:14.026Z,63.70
2024-03-04T10:12:18.765Z,63.25
2024-03-04T10:15:23.930Z,63.28
2024-03-04T10:18:29.658Z,63.75
2024-03-04T10:21:34.241Z,63.88
2024-03-04T10:24:38.342Z,63.80
2024-03-04T10:27:44.958Z,63.88
2024-03-04T10:30:49.152Z,64.05
2024-03-04T10:33:53.434Z,64.14
2024-03-04T10:36:59.930Z,63.94
2024-03-04T10:40:05.612Z,64.18
2024-03-04T10:43:09.916Z,64.24
2024-03-04T10:46:17.468Z,64.44
2024-03-04T10:49:24.219Z,64.32
2024-03-04T10:52:29.164Z,64.42
2024-03-04T10:55:35.008Z,64.39
2024-03-04T10:58:43.958Z,64.56
2024-03-04T11:01:49.312Z,64.04
2024-03-04T11:04:55.229Z,64.04
2024-03-04T11:08:08.243Z,63.93
2024-03-04T11:11:23.630Z,63.91
2024-03-04T11:14:35.696Z,64.03
2024-03-04T11:17:47.646Z,63.56
2024-03-04T11:20:52.450Z,63.73
2024-03-04T11:23:57.556Z,63.72
2024-03-04T11:27:03.714Z,63.59
2024-03-04T11:30:09.120Z,63.50
2024-03-04T11:33:43.097Z,63.57
2024-03-04T11:36:47.384Z,63.55
2024-03-04T11:39:53.716Z,63.50
2024-03-04T11:42:59.582Z,63.58
2024-03-04T11:46:04.436Z,63.78
2024-03-04T11:49:29.879Z,63.84
2024-03-04T11:52:39.627Z,63.76
2024-03-04T11:55:46.551Z,63.83
2024-03-04T11:58:51.343Z,63.53
2024-03-04T12:01:55.771Z,63.53
2024-03-04T12:05:02.489Z,63.32
2024-03-04T12:08:21.248Z,63.34
2024-03-04T12:11:33.392Z,62.99
2024-03-04T12:14:37.810Z,63.09
2024-03-04T12:17:42.781Z,63.20
2024-03-04T12:20:47.473Z,62.84
2024-03-04T12:23:51.698Z,62.63
2024-03-04T12:26:57.140Z,62.75
2024-03-04T12:30:15.987Z,62.99
2024-03-04T12:33:20.432Z,62.94
2024-03-04T12:36:26.312Z,63.27
2024-03-04T12:39:32.804Z,62.92
2024-03-04T12:42:37.101Z,62.93
2024-03-04T12:45:41.618Z,62.99
2024-03-04T12:48:46.676Z,63.22
2024-03-04T12:51:51.005Z,63.03
2024-03-04T12:54:55.203Z,63.06
2024-03-04T12:57:59.994Z,63.16
2024-03-04T13:01:17.049Z,63.46
2024-03-04T13:04:21.512Z,63.53
2024-03-04T13:07:25.814Z,63.37
2024-03-04T13:10:30.449Z,63.42
2024-03-04T13:13:34.797Z,63.44
2024-03-04T13:16:40.343Z,63.63
2024-03-04T13:19:44.764Z,63.61
2024-03-04T13:22:51.222Z,63.43
2024-03-04T13:25:55.488Z,64.04
2024-03-04T13:28:59.856Z,63.90
2024-03-04T13:32:05.070Z,63.97
2024-03-04T13:35:11.152Z,63.79
2024-03-04T13:38:15.696Z,63.76
2024-03-04T13:41:19.917Z,63.60
2024-03-04T13:44:24.859Z,63.54
2024-03-04T13:47:29.320Z,63.49
2024-03-04T13:50:33.599Z,63.27
2024-03-04T13:53:38.323Z,63.50
2024-03-04T13:56:42.666Z,63.69
2024-03-04T13:59:46.985Z,63.87
2024-03-04T14:02:51.318Z,63.93
2024-03-04T14:05:55.851Z,64.00
2024-03-04T14:09:00.161Z,63.83
2024-03-04T14:12:05.070Z,63.86
2024-03-04T14:15:09.966Z,63.75
2024-03-04T14:18:14.382Z,64.01
2024-03-04T14:21:18.780Z,63.92
2024-03-04T14:24:23.004Z,64.11
2024-03-04T14:27:27.639Z,64.19
2024-03-04T14:30:32.358Z,64.07
2024-03-04T14:33:37.360Z,64.32
2024-03-04T14:36:41.828Z,64.33
2024-03-04T14:39:46.392Z,64.44
2024-03-04T14:42:50.685Z,65.02
2024-03-04T14:45:55.020Z,65.09
2024-03-04T14:48:59.135Z,65.03
2024-03-04T14:52:04.973Z,65.31
2024-03-04T14:55:09.427Z,65.52
2024-03-04T14:58:13.667Z,66.08
2024-03-04T15:01:21.131Z,66.46
2024-03-04T15:04:25.400Z,66.93
2024-03-04T15:07:29.842Z,67.32
2024-03-04T15:10:34.176Z,67.85
2024-03-04T15:13:39.136Z,68.28
2024-03-04T15:16:50.997Z,68.47
2024-03-04T15:19:56.392Z,69.23
2024-03-04T15:23:00.608Z,69.31
2024-03-04T15:26:04.861Z,70.12
2024-03-04T15:29:09.157Z,70.14
2024-03-04T15:32:13.978Z,70.15
2024-03-04T15:35:18.250Z,70.82
2024-03-04T15:38:22.534Z,70.68
2024-03-04T15:41:26.660Z,71.15
2024-03-04T15:44:30.876Z,71.54
2024-03-04T15:47:35.881Z,71.62
2024-03-04T15:50:40.126Z,71.68
2024-03-04T15:53:44.297Z,71.75
2024-03-04T15:56:48.403Z,72.23
2024-03-04T15:59:54.115Z,71.83
2024-03-04T16:02:58.336Z,71.96
2024-03-04T16:06:05.159Z,72.37
2024-03-04T16:09:10.249Z,71.67
2024-03-04T16:12:15.441Z,71.52
2024-03-04T16:15:19.784Z,72.05
2024-03-04T16:18:24.082Z,71.92
2024-03-04T16:21:30.495Z,71.88
2024-03-04T16:24:36.736Z,71.79
2024-03-04T16:27:41.633Z,71.90
2024-03-04T16:30:47.488Z,71.73
2024-03-04T16:33:52.440Z,72.01
2024-03-04T16:36:56.646Z,72.25
2024-03-04T16:40:02.037Z,72.38
2024-03-04T16:43:06.748Z,72.05
2024-03-04T16:46:11.080Z,72.26
2024-03-04T16:49:15.724Z,72.47
2024-03-04T16:52:20.035Z,72.31
2024-03-04T16:55:24.495Z,72.40
2024-03-04T16:58:30.251Z,72.50
2024-03-04T17:01:38.741Z,72.72
2024-03-04T17:04:45.122Z,72.72
2024-03-04T17:07:49.803Z,72.33
2024-03-04T17:10:54.352Z,72.61
2024-03-04T17:13:59.172Z,72.49
2024-03-04T17:17:06.479Z,72.44
2024-03-04T17:20:11.706Z,72.55
2024-03-04T17:23:19.008Z,72.71
2024-03-04T17:26:24.254Z,73.22
2024-03-04T17:29:31.390Z,73.01
2024-03-04T17:32:37.414Z,72.88
2024-03-04T17:35:42.450Z,73.05
2024-03-04T17:38:46.763Z,73.47
2024-03-04T17:41:51.124Z,73.42
2024-03-04T17:44:55.517Z,73.23
2024-03-04T17:48:00.130Z,74.06
2024-03-04T17:51:05.491Z,73.85
2024-03-04T17:54:11.252Z,74.26
2024-03-04T17:57:15.570Z,74.49
2024-03-04T18:00:20.684Z,74.44
2024-03-04T18:03:25.002Z,74.67
2024-03-04T18:06:29.771Z,74.84
2024-03-04T18:09:34.112Z,74.76
2024-03-04T18:12:38.798Z,74.52
2024-03-04T18:15:45.638Z,74.76
2024-03-04T18:18:49.931Z,74.79
2024-03-04T18:21:54.283Z,74.87
2024-03-04T18:24:58.591Z,75.04
2024-03-04T18:28:02.900Z,74.97
2024-03-04T18:31:07.279Z,75.17
2024-03-04T18:34:14.241Z,75.23
2024-03-04T18:37:20.409Z,75.07
2024-03-04T18:40:24.857Z,75.08
2024-03-04T18:43:29.272Z,75.43
2024-03-04T18:46:34.035Z,75.38
2024-03-04T18:49:39.180Z,75.70
2024-03-04T18:52:43.774Z,75.44
2024-03-04T18:55:48.054Z,75.39
2024-03-04T18:58:52.510Z,75.54
2024-03-04T19:01:57.112Z,75.90
2024-03-04T19:05:01.584Z,75.86
2024-03-04T19:08:07.142Z,75.54
2024-03-04T19:11:15.840Z,75.59
2024-03-04T19:14:21.104Z,75.89
2024-03-04T19:17:25.393Z,75.89
2024-03-04T19:20:29.633Z,75.87
2024-03-04T19:23:33.946Z,76.04
2024-03-04T19:26:38.657Z,75.94
2024-03-04T19:29:44.005Z,76.02
2024-03-04T19:32:48.273Z,75.95
2024-03-04T19:35:53.164Z,75.87
2024-03-04T19:38:57.421Z,75.77
2024-03-04T19:42:03.329Z,75.86
2024-03-04T19:45:09.850Z,75.67
2024-03-04T19:48:14.171Z,75.50
2024-03-04T19:51:22.929Z,75.64
2024-03-04T19:54:28.423Z,75.88
2024-03-04T19:57:39.908Z,76.07
2024-03-04T20:00:48.991Z,76.25
2024-03-04T20:03:53.306Z,76.05
2024-03-04T20:06:59.181Z,76.23
2024-03-04T20:10:03.963Z,76.17
2024-03-04T20:13:08.401Z,76.27
2024-03-04T20:16:16.965Z,76.02
2024-03-04T20:19:22.100Z,76.15
2024-03-04T20:22:27.547Z,76.38
2024-03-04T20:25:32.161Z,76.17
2024-03-04T20:28:37.473Z,76.07
2024-03-04T20:31:42.658Z,76.04
2024-03-04T20:34:47.051Z,75.96
2024-03-04T20:37:51.305Z,76.19
2024-03-04T20:40:55.806Z,76.32
2024-03-04T20:44:01.352Z,76.49
2024-03-04T20:47:05.666Z,76.32
2024-03-04T20:50:11.018Z,76.17
2024-03-04T20:53:15.335Z,76.42
2024-03-04T20:56:19.667Z,76.54
2024-03-04T20:59:24.877Z,76.38
2024-03-04T21:02:30.150Z,76.57
2024-03-04T21:05:34.680Z,76.45
2024-03-04T21:08:39.107Z,76.43
2024-03-04T21:11:43.974Z,76.58
2024-03-04T21:14:48.675Z,76.32
2024-03-04T21:17:55.960Z,76.54
2024-03-04T21:21:02.752Z,76.49
2024-03-04T21:24:07.083Z,76.60
2024-03-04T21:27:11.496Z,76.24
2024-03-04T21:30:19.757Z,76.07
2024-03-04T21:33:24.073Z,76.43
2024-03-04T21:36:28.361Z,76.21
2024-03-04T21:39:33.090Z,76.23
2024-03-04T21:42:40.790Z,76.16
2024-03-04T21:45:46.071Z,76.28
2024-03-04T21:48:50.370Z,76.24
2024-03-04T21:51:54.589Z,76.44
2024-03-04T21:54:59.108Z,76.51
2024-03-04T21:58:05.814Z,76.14
2024-03-04T22:01:21.364Z,76.54
2024-03-04T22:04:25.975Z,76.29
2024-03-04T22:07:30.360Z,76.20
2024-03-04T22:10:36.846Z,75.86
2024-03-04T22:13:41.647Z,76.20
2024-03-04T22:16:46.980Z,76.10
2024-03-04T22:19:54.004Z,75.96
2024-03-04T22:22:58.341Z,76.09
2024-03-04T22:26:04.340Z,76.42
2024-03-04T22:29:10.419Z,76.36
2024-03-04T22:32:15.194Z,76.07
2024-03-04T22:35:19.480Z,76.30
2024-03-04T22:38:24.209Z,76.37
2024-03-04T22:41:29.152Z,76.53
2024-03-04T22:44:33.598Z,76.19
2024-03-04T22:47:38.014Z,76.34
2024-03-04T22:50:42.859Z,76.65
2024-03-04T22:53:47.084Z,76.52
2024-03-04T22:56:51.894Z,76.38
2024-03-04T22:59:56.117Z,76.30
2024-03-04T23:03:01.587Z,76.61
2024-03-04T23:06:06.393Z,76.58
2024-03-04T23:09:10.626Z,76.64
2024-03-04T23:12:16.941Z,76.45
2024-03-04T23:15:21.217Z,76.43
2024-03-04T23:18:25.965Z,76.44
2024-03-04T23:21:30.587Z,76.17
2024-03-04T23:24:34.913Z,76.12
2024-03-04T23:27:40.461Z,76.26
2024-03-04T23:30:44.918Z,76.34
2024-03-04T23:33:50.537Z,76.19
2024-03-04T23:36:55.478Z,76.18
2024-03-04T23:40:00.215Z,76.05
2024-03-04T23:43:04.911Z,76.12
2024-03-04T23:46:10.350Z,76.06
2024-03-04T23:49:15.044Z,75.90
2024-03-04T23:52:19.332Z,75.96
2024-03-04T23:55:23.530Z,75.91
2024-03-04T23:58:28.464Z,75.70
